Time;durP1;ratioP1;P1;durP2;ratioP2;P2;SDS_P1;SDS_P2;PMS_P1;PMS_P2;Temp;Humidity;BMP_temperature;BMP_pressure;BME280_temperature;BME280_humidity;BME280_pressure;Samples;Min_cycle;Max_cycle;Signal;HPM_P1;HPM_P2
2023/07/04 00:01:12;;;;;;;13.32;4.30;;;14.70;99.90;;;;;;4952209;28;20118;-49
2023/07/04 00:03:40;;;;;;;18.17;4.97;;;14.70;99.90;;;;;;4952350;28;20059;-46
2023/07/04 00:06:08;;;;;;;12.43;3.50;;;14.70;99.90;;;;;;4953069;28;20042;-47
2023/07/04 00:08:34;;;;;;;13.52;3.78;;;14.70;99.90;;;;;;4950242;28;20082;-48
2023/07/04 00:11:03;;;;;;;12.20;4.80;;;14.60;99.90;;;;;;4952670;28;20043;-49
2023/07/04 00:13:31;;;;;;;14.32;5.07;;;14.60;99.90;;;;;;4952805;28;20171;-51
2023/07/04 00:15:57;;;;;;;15.05;4.70;;;14.50;99.90;;;;;;4955789;28;20478;-50
2023/07/04 00:18:25;;;;;;;16.88;4.97;;;14.50;99.90;;;;;;4956787;28;20047;-46
2023/07/04 00:20:54;;;;;;;17.88;4.97;;;14.50;99.90;;;;;;4955789;28;20039;-48
2023/07/04 00:23:29;;;;;;;14.45;5.35;;;14.60;99.90;;;;;;4955254;28;20475;-47
2023/07/04 00:25:55;;;;;;;16.58;4.72;;;14.60;99.90;;;;;;4956664;28;20496;-49
2023/07/04 00:28:22;;;;;;;13.55;4.47;;;14.40;99.90;;;;;;4956633;28;20071;-49
2023/07/04 00:30:52;;;;;;;15.60;3.78;;;14.40;99.90;;;;;;4955517;28;20083;-46
2023/07/04 00:33:33;;;;;;;15.32;3.90;;;14.50;99.90;;;;;;4955929;28;20079;-49
2023/07/04 00:36:00;;;;;;;14.07;3.30;;;14.40;99.90;;;;;;4939854;28;20039;-49
2023/07/04 00:38:27;;;;;;;17.05;4.53;;;14.40;99.90;;;;;;4955591;28;20043;-48
2023/07/04 00:40:54;;;;;;;14.00;3.00;;;14.40;99.90;;;;;;4954208;28;20043;-49
2023/07/04 00:43:21;;;;;;;18.15;4.40;;;14.40;99.90;;;;;;4955745;28;20054;-47
2023/07/04 00:45:55;;;;;;;15.60;4.35;;;14.40;99.90;;;;;;4955547;28;20046;-50
2023/07/04 00:48:23;;;;;;;15.77;4.13;;;14.40;99.90;;;;;;4955803;28;20046;-49
2023/07/04 00:50:52;;;;;;;14.73;4.80;;;14.30;99.90;;;;;;4954783;28;20090;-48
2023/07/04 00:53:18;;;;;;;15.77;4.97;;;14.40;99.90;;;;;;4953726;28;20039;-51
2023/07/04 00:55:48;;;;;;;12.15;4.05;;;14.40;99.90;;;;;;4946487;28;20042;-50
2023/07/04 00:58:15;;;;;;;12.63;4.10;;;14.30;99.90;;;;;;4954286;28;20027;-48
2023/07/04 01:00:41;;;;;;;10.13;3.90;;;14.20;99.90;;;;;;4951146;28;20078;-50
2023/07/04 01:03:10;;;;;;;10.15;4.03;;;14.20;99.90;;;;;;4954766;28;20482;-48
2023/07/04 01:06:08;;;;;;;14.02;3.03;;;14.20;99.90;;;;;;4953990;28;20456;-48
2023/07/04 01:08:39;;;;;;;13.85;4.30;;;14.00;99.90;;;;;;4954008;28;20047;-48
2023/07/04 01:11:16;;;;;;;12.70;3.38;;;14.10;99.90;;;;;;4955177;28;20035;-46
2023/07/04 01:13:45;;;;;;;14.32;3.20;;;13.90;99.90;;;;;;4946385;28;20487;-50
2023/07/04 01:16:18;;;;;;;14.23;4.13;;;13.80;99.90;;;;;;4919278;28;20065;-50
2023/07/04 01:18:54;;;;;;;11.52;3.92;;;13.80;99.90;;;;;;4954787;28;20140;-46
2023/07/04 01:21:24;;;;;;;10.93;4.25;;;13.90;99.90;;;;;;4951738;28;20078;-51
2023/07/04 01:24:18;;;;;;;12.00;4.00;;;13.70;99.90;;;;;;4934110;28;20047;-50
2023/07/04 01:26:46;;;;;;;11.40;4.05;;;13.70;99.90;;;;;;4952298;28;20035;-49
2023/07/04 01:29:16;;;;;;;13.35;4.28;;;13.70;99.90;;;;;;4954958;28;20043;-49
2023/07/04 01:31:43;;;;;;;11.07;4.28;;;13.70;99.90;;;;;;4955107;28;20035;-49
2023/07/04 01:34:11;;;;;;;13.05;4.60;;;13.70;99.90;;;;;;4955282;28;20054;-49
2023/07/04 01:36:40;;;;;;;13.88;4.47;;;13.70;99.90;;;;;;4955517;28;20078;-47
2023/07/04 01:39:08;;;;;;;12.80;4.65;;;13.70;99.90;;;;;;4955146;28;20086;-47
2023/07/04 01:41:34;;;;;;;12.10;4.20;;;13.60;99.90;;;;;;4955022;28;20113;-47
2023/07/04 01:44:06;;;;;;;14.07;4.57;;;13.60;99.90;;;;;;4955261;28;20545;-48
2023/07/04 01:46:34;;;;;;;13.95;4.50;;;13.50;99.90;;;;;;4922316;28;20380;-50
2023/07/04 01:49:01;;;;;;;13.52;4.40;;;13.60;99.90;;;;;;4954091;28;20399;-50
2023/07/04 01:51:34;;;;;;;12.90;4.30;;;13.60;99.90;;;;;;4955192;28;20117;-52
2023/07/04 01:54:01;;;;;;;12.52;3.67;;;13.50;99.90;;;;;;4937595;28;20487;-48
2023/07/04 01:56:28;;;;;;;12.35;4.68;;;13.40;99.90;;;;;;4955105;28;20146;-49
2023/07/04 01:58:54;;;;;;;12.95;4.95;;;13.50;99.90;;;;;;4955042;28;20039;-48
2023/07/04 02:01:19;;;;;;;12.73;4.65;;;13.50;99.90;;;;;;4954540;28;20074;-51
2023/07/04 02:03:45;;;;;;;12.73;4.18;;;13.50;99.90;;;;;;4954925;28;20078;-48
2023/07/04 02:06:11;;;;;;;14.20;4.78;;;13.40;99.90;;;;;;4954630;28;20151;-47
2023/07/04 02:08:36;;;;;;;14.57;4.78;;;13.40;99.90;;;;;;4954605;28;20039;-48
2023/07/04 02:11:02;;;;;;;13.23;4.63;;;13.40;99.90;;;;;;4937780;28;20090;-47
2023/07/04 02:13:28;;;;;;;10.68;5.18;;;13.50;99.90;;;;;;4954627;28;20486;-48
2023/07/04 02:15:54;;;;;;;14.18;5.30;;;13.60;99.90;;;;;;4954628;28;20048;-49
2023/07/04 02:18:19;;;;;;;14.73;3.72;;;13.60;99.90;;;;;;4954761;28;20034;-47
2023/07/04 02:20:45;;;;;;;15.77;4.90;;;13.60;99.90;;;;;;4954490;28;20502;-51
2023/07/04 02:23:11;;;;;;;18.55;5.50;;;13.50;99.90;;;;;;4954718;28;20402;-47
2023/07/04 02:25:43;;;;;;;16.58;5.60;;;13.60;99.90;;;;;;4954736;28;20058;-50
2023/07/04 02:28:10;;;;;;;13.75;4.10;;;13.70;99.90;;;;;;4954304;28;20192;-51
2023/07/04 02:30:36;;;;;;;18.48;5.63;;;13.60;99.90;;;;;;4936500;28;20062;-48
2023/07/04 02:33:02;;;;;;;16.27;4.82;;;13.80;99.90;;;;;;4954088;28;20490;-49
2023/07/04 02:35:29;;;;;;;15.98;5.40;;;13.60;99.90;;;;;;4953547;28;20039;-48
2023/07/04 02:37:56;;;;;;;17.13;4.63;;;13.70;99.90;;;;;;4935221;28;20047;-48
2023/07/04 02:40:23;;;;;;;13.85;4.97;;;13.60;99.90;;;;;;4953366;28;21040;-48
2023/07/04 02:42:48;;;;;;;16.70;5.93;;;13.70;99.90;;;;;;4953260;28;20102;-48
2023/07/04 02:45:14;;;;;;;11.15;4.60;;;13.70;99.90;;;;;;4954153;28;20035;-51
2023/07/04 02:47:40;;;;;;;11.73;5.25;;;13.60;99.90;;;;;;4953780;28;20506;-46
2023/07/04 02:50:06;;;;;;;15.07;5.47;;;13.70;99.90;;;;;;4954221;28;20051;-48
2023/07/04 02:52:32;;;;;;;15.63;5.40;;;13.60;99.90;;;;;;4953857;28;20078;-50
2023/07/04 02:54:57;;;;;;;11.50;4.20;;;13.70;99.90;;;;;;4953925;28;20086;-48
2023/07/04 02:57:23;;;;;;;15.20;5.60;;;13.70;99.90;;;;;;4920721;28;20046;-50
2023/07/04 02:59:49;;;;;;;17.13;6.10;;;13.70;99.90;;;;;;4953540;28;20035;-50
2023/07/04 03:02:15;;;;;;;16.05;4.38;;;13.70;99.90;;;;;;4953531;28;20051;-48
2023/07/04 03:04:41;;;;;;;15.75;5.97;;;13.50;99.90;;;;;;4953491;28;20039;-51
2023/07/04 03:07:07;;;;;;;15.57;5.72;;;13.50;99.90;;;;;;4953341;28;20035;-50
2023/07/04 03:09:32;;;;;;;15.95;6.00;;;13.60;99.90;;;;;;4953729;28;20077;-49
2023/07/04 03:11:58;;;;;;;15.68;4.40;;;13.70;99.90;;;;;;4953747;28;20131;-48
2023/07/04 03:14:25;;;;;;;17.90;6.13;;;13.50;99.90;;;;;;4953555;28;20391;-48
2023/07/04 03:16:51;;;;;;;15.43;6.38;;;13.50;99.90;;;;;;4953047;28;20070;-46
2023/07/04 03:19:17;;;;;;;22.17;6.63;;;13.60;99.90;;;;;;4952596;28;20039;-48
2023/07/04 03:21:42;;;;;;;15.80;4.30;;;13.70;99.90;;;;;;4955875;28;20148;-47
2023/07/04 03:24:08;;;;;;;15.05;4.20;;;13.60;99.90;;;;;;4964043;28;20479;-47
2023/07/04 03:26:34;;;;;;;14.07;6.15;;;13.70;99.90;;;;;;4953536;28;20090;-51
2023/07/04 03:29:01;;;;;;;17.67;4.95;;;13.70;99.90;;;;;;4953391;28;20400;-48
2023/07/04 03:31:27;;;;;;;11.48;4.15;;;13.70;99.90;;;;;;4952778;28;20045;-48
2023/07/04 03:33:52;;;;;;;14.00;4.45;;;13.60;99.90;;;;;;4953066;28;20039;-47
2023/07/04 03:36:19;;;;;;;18.23;6.40;;;13.60;99.90;;;;;;4953314;28;20043;-49
2023/07/04 03:38:44;;;;;;;14.23;6.00;;;13.60;99.90;;;;;;4952802;28;20046;-50
2023/07/04 03:41:10;;;;;;;16.33;6.47;;;13.60;99.90;;;;;;4952949;28;20031;-49
2023/07/04 03:43:36;;;;;;;15.25;6.28;;;13.70;99.90;;;;;;4953013;28;20047;-47
2023/07/04 03:46:02;;;;;;;19.75;5.75;;;13.60;99.90;;;;;;4935623;28;20395;-50
2023/07/04 03:48:28;;;;;;;18.80;5.90;;;13.70;99.90;;;;;;4952709;28;20043;-47
2023/07/04 03:50:54;;;;;;;13.18;3.97;;;13.50;99.90;;;;;;4952212;28;20066;-50
2023/07/04 03:53:20;;;;;;;17.75;5.88;;;13.70;99.90;;;;;;4952896;28;20043;-51
2023/07/04 03:55:47;;;;;;;13.27;5.28;;;13.60;99.90;;;;;;4953327;28;20035;-51
2023/07/04 03:58:13;;;;;;;8.68;4.10;;;13.60;99.90;;;;;;4953241;28;20046;-49
2023/07/04 04:00:38;;;;;;;11.52;3.25;;;13.60;99.90;;;;;;4952676;28;20398;-49
2023/07/04 04:03:04;;;;;;;11.38;4.82;;;13.70;99.90;;;;;;4952602;28;20063;-48
2023/07/04 04:05:30;;;;;;;14.02;4.15;;;13.70;99.90;;;;;;4952858;28;20047;-50
2023/07/04 04:07:55;;;;;;;11.52;4.97;;;13.70;99.90;;;;;;4952715;28;20050;-47
2023/07/04 04:10:21;;;;;;;12.60;4.68;;;13.60;99.90;;;;;;4952758;28;20043;-49
2023/07/04 04:12:47;;;;;;;9.27;3.22;;;13.70;99.90;;;;;;4952653;28;20375;-47
2023/07/04 04:15:13;;;;;;;12.65;4.50;;;13.70;99.90;;;;;;4952968;28;20430;-48
2023/07/04 04:17:39;;;;;;;10.55;4.47;;;13.60;99.90;;;;;;4952694;28;20053;-48
2023/07/04 04:20:06;;;;;;;12.02;4.32;;;13.70;99.90;;;;;;4935774;28;20322;-50
2023/07/04 04:22:33;;;;;;;9.02;4.38;;;13.80;99.90;;;;;;4952616;28;20110;-47
2023/07/04 04:24:59;;;;;;;11.43;4.13;;;13.80;99.90;;;;;;4952737;28;20063;-48
2023/07/04 04:27:30;;;;;;;11.82;4.15;;;13.70;99.90;;;;;;4952750;28;20070;-46
2023/07/04 04:29:57;;;;;;;10.50;3.95;;;13.70;99.90;;;;;;4935116;28;20055;-50
2023/07/04 04:32:22;;;;;;;11.00;3.15;;;13.80;99.90;;;;;;4952704;28;20067;-47
2023/07/04 04:34:48;;;;;;;10.50;3.83;;;13.70;99.90;;;;;;4952584;28;20526;-47
2023/07/04 04:37:16;;;;;;;9.13;3.20;;;13.70;99.90;;;;;;4952727;28;20047;-52
2023/07/04 04:39:44;;;;;;;13.35;3.70;;;13.80;99.90;;;;;;4952318;28;20035;-52
2023/07/04 04:42:14;;;;;;;8.75;2.92;;;13.80;99.90;;;;;;4935885;28;20037;-50
2023/07/04 04:44:43;;;;;;;5.75;2.50;;;13.70;99.90;;;;;;4952727;28;20039;-48
2023/07/04 04:47:08;;;;;;;10.95;2.85;;;13.70;99.90;;;;;;4952317;28;20077;-49
2023/07/04 04:49:53;;;;;;;9.60;2.55;;;13.60;99.90;;;;;;4952382;28;20046;-48
2023/07/04 04:52:20;;;;;;;12.00;3.10;;;13.60;99.90;;;;;;4951562;28;20475;-50
2023/07/04 04:54:47;;;;;;;9.50;3.33;;;13.80;99.90;;;;;;4952403;28;20503;-47
2023/07/04 04:57:14;;;;;;;13.10;2.80;;;13.80;99.90;;;;;;4952525;28;20035;-50
2023/07/04 04:59:40;;;;;;;11.68;2.50;;;13.80;99.90;;;;;;4952387;28;20043;-47
2023/07/04 05:02:06;;;;;;;7.22;2.70;;;13.80;99.90;;;;;;4954584;28;20503;-49
2023/07/04 05:04:33;;;;;;;8.95;3.17;;;13.70;99.90;;;;;;4956053;28;20043;-47
2023/07/04 05:06:59;;;;;;;9.23;3.10;;;13.80;99.90;;;;;;4955690;28;20081;-49
2023/07/04 05:09:25;;;;;;;10.15;2.75;;;13.80;99.90;;;;;;4938328;28;20071;-49
2023/07/04 05:11:50;;;;;;;8.63;3.08;;;13.80;99.90;;;;;;4955569;28;20047;-50
2023/07/04 05:14:16;;;;;;;8.93;2.80;;;13.80;99.90;;;;;;4955598;28;20085;-50
2023/07/04 05:16:42;;;;;;;7.13;2.50;;;13.90;99.90;;;;;;4937342;28;20391;-50
2023/07/04 05:19:07;;;;;;;10.90;3.30;;;13.80;99.90;;;;;;4955605;28;20085;-49
2023/07/04 05:21:33;;;;;;;9.07;2.20;;;13.80;99.90;;;;;;4954896;28;20039;-50
2023/07/04 05:23:59;;;;;;;11.13;3.00;;;14.00;99.90;;;;;;4955599;28;20039;-51
2023/07/04 05:26:27;;;;;;;10.32;2.33;;;13.90;99.90;;;;;;4955499;28;20601;-48
2023/07/04 05:28:55;;;;;;;8.95;2.95;;;14.00;99.90;;;;;;4938095;28;20042;-49
2023/07/04 05:31:26;;;;;;;9.88;2.15;;;14.00;99.90;;;;;;4937371;28;20102;-51
2023/07/04 05:33:54;;;;;;;8.00;1.98;;;14.10;99.90;;;;;;4955548;28;20468;-48
2023/07/04 05:36:22;;;;;;;6.82;2.70;;;14.10;99.90;;;;;;4955024;28;20430;-49
2023/07/04 05:38:49;;;;;;;10.70;2.88;;;14.00;99.90;;;;;;4937981;28;20043;-49
2023/07/04 05:41:19;;;;;;;8.95;2.17;;;14.20;99.90;;;;;;4955201;28;20129;-48
2023/07/04 05:43:45;;;;;;;7.72;2.55;;;14.10;99.90;;;;;;4955568;28;20077;-48
2023/07/04 05:46:12;;;;;;;8.75;2.35;;;14.10;99.90;;;;;;4937686;28;20043;-49
2023/07/04 05:48:40;;;;;;;8.10;2.45;;;14.20;99.90;;;;;;4937773;28;20066;-48
2023/07/04 05:51:08;;;;;;;8.88;2.35;;;14.20;99.90;;;;;;4955208;28;20081;-47
2023/07/04 05:53:36;;;;;;;7.28;2.20;;;14.30;99.90;;;;;;4955137;28;20050;-45
2023/07/04 05:56:06;;;;;;;12.30;2.88;;;14.20;99.90;;;;;;4954885;28;20427;-50
2023/07/04 05:58:31;;;;;;;6.78;2.03;;;14.30;99.90;;;;;;4954694;28;20040;-47
2023/07/04 06:01:13;;;;;;;6.90;2.13;;;14.30;99.90;;;;;;4955171;28;20046;-49
2023/07/04 06:03:40;;;;;;;7.40;2.35;;;14.30;99.90;;;;;;4954873;28;20047;-45
2023/07/04 06:06:07;;;;;;;5.82;2.20;;;14.50;99.90;;;;;;4955033;28;20046;-49
2023/07/04 06:08:33;;;;;;;11.10;2.50;;;14.50;99.90;;;;;;4954884;28;20394;-46
2023/07/04 06:11:04;;;;;;;8.52;2.45;;;14.50;99.90;;;;;;4974227;28;20038;-49
2023/07/04 06:13:31;;;;;;;7.28;2.05;;;14.50;99.90;;;;;;4972977;28;20068;-47
2023/07/04 06:16:01;;;;;;;9.63;2.20;;;14.60;99.90;;;;;;4974082;28;20486;-49
2023/07/04 06:18:27;;;;;;;7.35;1.80;;;14.70;99.90;;;;;;4973599;28;20045;-46
2023/07/04 06:20:52;;;;;;;7.10;2.28;;;14.60;99.90;;;;;;4973703;28;20117;-46
2023/07/04 06:23:21;;;;;;;8.27;2.08;;;14.70;99.90;;;;;;4956486;28;20039;-47
2023/07/04 06:25:56;;;;;;;9.43;2.13;;;14.70;99.90;;;;;;4973784;28;20482;-48
2023/07/04 06:28:22;;;;;;;7.50;2.45;;;14.80;99.90;;;;;;4971402;28;20043;-48
2023/07/04 06:30:47;;;;;;;6.65;1.50;;;14.90;99.90;;;;;;4954059;28;20086;-47
2023/07/04 06:33:13;;;;;;;7.32;1.83;;;14.90;99.90;;;;;;4936857;28;20055;-50
2023/07/04 06:35:42;;;;;;;6.00;1.88;;;15.10;99.90;;;;;;4954406;28;20043;-52
2023/07/04 06:38:09;;;;;;;8.02;1.88;;;15.10;99.90;;;;;;4953824;28;20054;-48
2023/07/04 06:40:35;;;;;;;7.32;2.42;;;15.10;99.90;;;;;;4953693;28;20121;-51
2023/07/04 06:43:01;;;;;;;7.72;1.85;;;15.30;99.90;;;;;;4953828;28;20058;-51
2023/07/04 06:45:27;;;;;;;4.82;1.88;;;15.30;99.90;;;;;;4953946;28;20043;-47
2023/07/04 06:47:52;;;;;;;7.18;1.70;;;15.40;99.90;;;;;;4959945;28;20521;-47
2023/07/04 06:50:18;;;;;;;6.63;2.05;;;15.50;99.90;;;;;;4951621;28;20390;-47
2023/07/04 06:52:44;;;;;;;10.40;2.10;;;15.60;99.90;;;;;;4952558;28;20032;-48
2023/07/04 06:55:09;;;;;;;6.10;2.00;;;15.60;99.90;;;;;;4953233;28;20050;-49
2023/07/04 06:57:35;;;;;;;9.65;2.00;;;15.70;99.90;;;;;;4953542;28;20039;-47
2023/07/04 07:00:00;;;;;;;10.73;2.25;;;15.80;99.90;;;;;;4953598;28;20475;-50
2023/07/04 07:02:26;;;;;;;8.40;2.10;;;15.80;99.90;;;;;;4952997;28;20501;-48
2023/07/04 07:04:52;;;;;;;7.95;1.83;;;15.90;99.90;;;;;;4953358;28;20035;-48
2023/07/04 07:07:17;;;;;;;8.45;1.83;;;16.00;99.90;;;;;;4916972;28;20714;-45
2023/07/04 07:09:43;;;;;;;10.65;2.35;;;16.00;99.90;;;;;;4935997;28;20483;-47
2023/07/04 07:12:11;;;;;;;10.00;2.40;;;16.10;99.90;;;;;;4953319;28;20047;-48
2023/07/04 07:14:37;;;;;;;7.90;2.10;;;16.10;99.90;;;;;;4950895;28;20074;-45
2023/07/04 07:17:05;;;;;;;9.82;2.00;;;16.20;99.90;;;;;;4952603;28;20031;-48
2023/07/04 07:19:30;;;;;;;8.88;1.98;;;16.30;99.90;;;;;;4950097;28;20070;-49
2023/07/04 07:22:00;;;;;;;8.35;1.70;;;16.40;99.90;;;;;;4952549;28;20047;-49
2023/07/04 07:24:27;;;;;;;9.30;2.40;;;16.40;99.90;;;;;;4951846;28;20376;-48
2023/07/04 07:26:53;;;;;;;10.10;2.83;;;16.60;99.90;;;;;;4952077;28;20154;-50
2023/07/04 07:29:18;;;;;;;8.05;1.77;;;16.70;99.90;;;;;;4949020;28;20125;-49
2023/07/04 07:31:44;;;;;;;10.40;2.60;;;16.80;99.90;;;;;;4927227;28;20039;-49
2023/07/04 07:34:10;;;;;;;8.93;1.90;;;16.90;99.90;;;;;;4923869;28;20049;-49
2023/07/04 07:36:38;;;;;;;10.73;2.70;;;17.00;99.90;;;;;;4944249;28;20398;-49
2023/07/04 07:39:06;;;;;;;9.70;2.13;;;17.00;99.90;;;;;;4941896;28;20042;-49
2023/07/04 07:41:36;;;;;;;7.22;2.17;;;17.10;99.90;;;;;;4942649;28;20034;-50
2023/07/04 07:44:03;;;;;;;9.38;2.08;;;17.30;99.90;;;;;;4943108;28;20043;-47
2023/07/04 07:46:29;;;;;;;8.85;2.60;;;17.30;99.90;;;;;;4942771;28;20032;-46
2023/07/04 07:48:55;;;;;;;9.43;1.98;;;17.30;99.90;;;;;;4942268;28;20039;-46
2023/07/04 07:51:21;;;;;;;8.90;2.30;;;17.30;99.90;;;;;;4943768;28;20039;-47
2023/07/04 07:53:49;;;;;;;12.43;2.10;;;17.20;99.90;;;;;;4924273;28;20069;-47
2023/07/04 07:56:18;;;;;;;11.32;1.77;;;17.10;99.90;;;;;;4942856;28;20109;-47
2023/07/04 07:58:44;;;;;;;9.90;2.03;;;17.20;99.90;;;;;;4941968;28;20314;-48
2023/07/04 08:01:11;;;;;;;10.93;2.10;;;17.20;99.90;;;;;;4942015;28;20415;-47
2023/07/04 08:03:37;;;;;;;8.90;1.70;;;17.20;99.90;;;;;;4943097;28;20118;-48
2023/07/04 08:06:03;;;;;;;8.77;2.13;;;17.10;99.90;;;;;;4926846;28;20043;-48
2023/07/04 08:08:28;;;;;;;12.85;2.70;;;17.10;99.90;;;;;;4943346;28;20502;-47
2023/07/04 08:10:54;;;;;;;9.50;2.08;;;17.20;99.90;;;;;;4910813;28;20399;-51
2023/07/04 08:13:20;;;;;;;11.20;2.45;;;17.20;99.90;;;;;;4942186;28;20043;-49
2023/07/04 08:15:55;;;;;;;12.52;2.53;;;17.20;99.90;;;;;;4943373;28;20043;-50
2023/07/04 08:18:21;;;;;;;11.13;3.00;;;17.30;99.90;;;;;;4942757;28;20086;-50
2023/07/04 08:21:01;;;;;;;12.70;2.00;;;17.40;99.90;;;;;;4942602;28;20451;-51
2023/07/04 08:23:27;;;;;;;7.93;2.42;;;17.40;99.90;;;;;;4942584;28;20039;-48
2023/07/04 08:25:53;;;;;;;13.25;2.70;;;17.40;99.90;;;;;;4943151;28;20700;-50
2023/07/04 08:28:21;;;;;;;12.35;2.40;;;17.30;99.90;;;;;;4924463;28;20035;-50
2023/07/04 08:30:47;;;;;;;10.75;2.65;;;17.30;99.90;;;;;;4941993;28;20035;-48
2023/07/04 08:33:17;;;;;;;10.95;2.05;;;17.40;99.90;;;;;;4943744;28;20645;-47
2023/07/04 08:36:04;;;;;;;7.95;1.92;;;17.40;99.90;;;;;;4925425;28;20039;-47
2023/07/04 08:38:30;;;;;;;11.13;2.85;;;17.40;99.90;;;;;;4934244;28;20083;-51
2023/07/04 08:40:56;;;;;;;12.60;2.40;;;17.40;99.90;;;;;;4945651;28;20039;-46
2023/07/04 08:44:14;;;;;;;11.73;2.58;;;17.30;99.90;;;;;;4946801;28;20043;-51
2023/07/04 08:46:43;;;;;;;11.40;1.98;;;17.20;99.90;;;;;;4930113;28;20047;-47
2023/07/04 08:49:40;;;;;;;11.85;2.65;;;17.20;99.90;;;;;;4947365;28;20506;-50
2023/07/04 08:52:14;;;;;;;9.13;2.63;;;17.20;99.90;;;;;;4947043;28;20035;-49
2023/07/04 08:54:40;;;;;;;9.48;2.10;;;17.10;99.90;;;;;;4946864;28;20115;-50
2023/07/04 08:57:38;;;;;;;16.02;2.00;;;17.00;99.90;;;;;;4946710;28;20110;-48
2023/07/04 09:00:14;;;;;;;7.95;1.92;;;17.00;99.90;;;;;;4941914;28;20511;-45
2023/07/04 09:02:52;;;;;;;9.43;1.95;;;17.10;99.90;;;;;;4946478;28;20443;-48
2023/07/04 09:05:49;;;;;;;9.10;2.40;;;17.10;99.90;;;;;;4946909;28;20451;-49
2023/07/04 09:08:46;;;;;;;7.72;2.05;;;17.30;99.90;;;;;;4946581;28;20110;-45
2023/07/04 09:11:14;;;;;;;8.38;2.20;;;17.50;99.90;;;;;;4940749;28;20058;-52
2023/07/04 09:13:45;;;;;;;10.23;2.35;;;17.70;99.90;;;;;;4929410;28;21314;-51
2023/07/04 09:16:23;;;;;;;8.93;2.47;;;17.90;99.90;;;;;;4945593;28;20403;-49
2023/07/04 09:18:52;;;;;;;9.88;2.58;;;18.10;99.90;;;;;;4947263;28;20039;-48
2023/07/04 09:21:20;;;;;;;10.52;2.40;;;18.20;99.90;;;;;;4929637;28;20538;-50
2023/07/04 09:23:49;;;;;;;7.82;2.38;;;18.20;99.90;;;;;;4946495;28;20075;-48
2023/07/04 09:26:21;;;;;;;9.13;2.20;;;18.10;99.90;;;;;;4945424;28;20043;-48
2023/07/04 09:28:50;;;;;;;12.50;2.90;;;18.10;99.90;;;;;;4946433;28;20111;-46
2023/07/04 09:31:34;;;;;;;10.18;2.40;;;18.10;99.90;;;;;;4927941;28;20085;-47
2023/07/04 09:34:13;;;;;;;12.95;2.58;;;18.30;99.90;;;;;;4946097;28;20394;-48
2023/07/04 09:36:39;;;;;;;14.23;2.58;;;18.60;99.90;;;;;;4945757;28;20046;-46
2023/07/04 09:39:06;;;;;;;11.10;2.60;;;18.90;99.90;;;;;;4944776;28;20510;-49
2023/07/04 09:41:34;;;;;;;12.15;2.70;;;19.20;99.90;;;;;;4946243;28;20043;-48
2023/07/04 09:44:29;;;;;;;11.40;2.45;;;19.60;99.90;;;;;;4946404;28;20118;-47
2023/07/04 09:46:59;;;;;;;10.75;2.38;;;19.70;99.90;;;;;;4945494;28;20047;-48
2023/07/04 09:49:35;;;;;;;6.78;2.03;;;19.60;99.90;;;;;;4927994;28;20039;-46
2023/07/04 09:52:02;;;;;;;11.48;2.60;;;19.60;99.90;;;;;;4944507;28;20086;-47
2023/07/04 09:54:39;;;;;;;11.48;2.60;;;19.70;99.90;;;;;;4943481;28;20436;-48
2023/07/04 09:57:27;;;;;;;8.38;2.53;;;20.00;99.90;;;;;;4945895;28;20031;-48
2023/07/04 09:59:53;;;;;;;10.82;2.20;;;20.20;99.90;;;;;;4945705;28;20043;-47
2023/07/04 10:02:34;;;;;;;8.70;2.13;;;20.20;99.90;;;;;;4944661;28;20047;-47
2023/07/04 10:05:00;;;;;;;9.70;2.33;;;20.20;99.90;;;;;;4945531;28;20046;-48
2023/07/04 10:07:27;;;;;;;15.65;2.60;;;20.20;99.90;;;;;;4942285;28;20151;-49
2023/07/04 10:10:05;;;;;;;11.52;2.53;;;20.00;99.90;;;;;;4925091;28;20126;-49
2023/07/04 10:12:43;;;;;;;11.43;2.95;;;19.60;99.90;;;;;;4923507;28;20043;-49
2023/07/04 10:15:09;;;;;;;13.48;2.80;;;19.20;99.90;;;;;;4941989;28;20067;-51
2023/07/04 10:17:37;;;;;;;12.20;2.90;;;19.00;99.90;;;;;;4940321;28;20064;-49
2023/07/04 10:20:12;;;;;;;11.95;3.05;;;18.90;99.90;;;;;;4943595;28;20614;-50
2023/07/04 10:22:52;;;;;;;12.55;2.90;;;18.70;99.90;;;;;;4941516;28;20027;-48
2023/07/04 10:25:21;;;;;;;10.77;2.45;;;18.60;99.90;;;;;;4921643;28;20032;-49
2023/07/04 10:27:56;;;;;;;11.82;2.65;;;18.60;99.90;;;;;;4939760;28;20047;-49
2023/07/04 10:30:28;;;;;;;9.65;2.47;;;18.60;99.90;;;;;;4942908;28;20039;-46
2023/07/04 10:33:00;;;;;;;11.82;2.90;;;18.60;99.90;;;;;;4927259;28;20047;-50
2023/07/04 10:35:30;;;;;;;8.82;2.25;;;18.60;99.90;;;;;;4943672;28;20035;-49
2023/07/04 10:38:15;;;;;;;9.40;2.30;;;18.70;99.90;;;;;;4927361;28;20050;-48
2023/07/04 10:40:42;;;;;;;8.32;2.25;;;18.80;99.90;;;;;;4938176;28;20031;-48
2023/07/04 10:43:12;;;;;;;7.00;1.70;;;18.90;99.90;;;;;;4935624;28;20047;-49
2023/07/04 10:45:41;;;;;;;6.75;2.00;;;19.00;99.90;;;;;;4933656;28;20047;-47
2023/07/04 10:48:14;;;;;;;8.07;2.25;;;19.20;99.90;;;;;;4922214;28;20129;-47
2023/07/04 10:50:50;;;;;;;10.20;2.25;;;19.60;99.90;;;;;;4942361;28;20058;-48
2023/07/04 10:53:18;;;;;;;8.02;2.15;;;19.80;99.90;;;;;;4942750;28;20047;-51
2023/07/04 10:55:50;;;;;;;10.45;2.25;;;19.90;99.90;;;;;;4940028;28;20114;-49
2023/07/04 10:58:21;;;;;;;11.20;2.17;;;19.90;99.90;;;;;;4941279;28;20801;-48
2023/07/04 11:00:50;;;;;;;10.77;1.95;;;19.90;99.90;;;;;;4940419;28;20491;-51
2023/07/04 11:03:22;;;;;;;7.70;1.92;;;19.90;99.90;;;;;;4940192;28;20109;-50
2023/07/04 11:05:52;;;;;;;9.32;1.70;;;20.00;99.90;;;;;;4940220;28;20114;-50
2023/07/04 11:08:20;;;;;;;7.22;1.80;;;20.10;99.90;;;;;;4943555;28;20078;-52
2023/07/04 11:10:51;;;;;;;7.70;1.80;;;20.10;99.90;;;;;;4941497;28;20070;-49
2023/07/04 11:13:19;;;;;;;9.68;2.10;;;19.90;99.90;;;;;;4941508;28;20046;-50
2023/07/04 11:15:54;;;;;;;11.80;2.40;;;19.60;99.90;;;;;;4942004;28;20054;-52
2023/07/04 11:18:26;;;;;;;11.18;2.10;;;19.40;99.90;;;;;;4941476;28;20054;-49
2023/07/04 11:21:14;;;;;;;11.93;2.67;;;19.20;99.90;;;;;;4941353;28;20050;-48
2023/07/04 11:23:44;;;;;;;9.73;2.30;;;19.20;99.90;;;;;;4941624;28;20045;-48
2023/07/04 11:26:10;;;;;;;8.90;2.25;;;19.60;99.90;;;;;;4940049;28;20035;-50
2023/07/04 11:28:36;;;;;;;8.30;2.42;;;20.00;99.90;;;;;;4941400;28;20467;-49
2023/07/04 11:31:13;;;;;;;12.70;2.28;;;20.30;99.90;;;;;;4941971;28;20051;-51
2023/07/04 11:33:44;;;;;;;9.15;2.08;;;20.60;99.90;;;;;;4941826;28;20070;-49
2023/07/04 11:36:24;;;;;;;11.07;2.00;;;20.80;99.90;;;;;;4940463;28;20719;-50
2023/07/04 11:38:52;;;;;;;11.63;1.92;;;20.80;99.90;;;;;;4942013;28;20039;-49
2023/07/04 11:41:39;;;;;;;9.45;2.28;;;20.80;99.90;;;;;;4941675;28;20031;-50
2023/07/04 11:44:23;;;;;;;12.48;2.60;;;20.90;99.90;;;;;;4923772;28;20035;-53
2023/07/04 11:47:00;;;;;;;9.40;2.10;;;21.00;99.90;;;;;;4939634;28;20238;-50
2023/07/04 11:49:28;;;;;;;7.22;2.22;;;21.00;99.90;;;;;;4940248;28;20082;-47
2023/07/04 11:52:16;;;;;;;7.32;1.85;;;20.70;99.90;;;;;;4943646;28;20097;-51
2023/07/04 11:54:43;;;;;;;7.68;1.90;;;20.50;99.90;;;;;;4943626;28;20440;-53
2023/07/04 11:57:09;;;;;;;9.15;2.13;;;20.20;99.90;;;;;;4944453;28;20047;-49
2023/07/04 11:59:53;;;;;;;8.07;1.88;;;20.00;99.90;;;;;;4943007;28;20050;-53
2023/07/04 12:02:27;;;;;;;7.55;1.67;;;19.80;99.90;;;;;;4944424;28;20550;-49
2023/07/04 12:04:54;;;;;;;7.07;1.88;;;19.80;99.90;;;;;;4943349;28;20050;-50
2023/07/04 12:07:30;;;;;;;10.18;2.00;;;19.90;99.90;;;;;;4944699;28;20043;-50
2023/07/04 12:10:18;;;;;;;7.63;2.00;;;19.90;99.90;;;;;;4943852;28;20039;-49
2023/07/04 12:12:45;;;;;;;13.07;2.28;;;19.80;99.90;;;;;;4942350;28;20090;-47
2023/07/04 12:15:25;;;;;;;9.07;1.95;;;19.80;99.90;;;;;;4918768;28;20051;-51
2023/07/04 12:17:54;;;;;;;8.73;2.20;;;19.70;99.90;;;;;;4943064;28;20058;-51
2023/07/04 12:20:21;;;;;;;9.55;1.95;;;19.60;99.90;;;;;;4943093;28;20155;-51
2023/07/04 12:22:55;;;;;;;8.00;1.80;;;19.50;99.90;;;;;;4944321;28;20446;-49
2023/07/04 12:25:26;;;;;;;16.42;2.63;;;19.50;99.90;;;;;;4926262;28;20086;-53
2023/07/04 12:27:56;;;;;;;10.13;2.05;;;19.40;99.90;;;;;;4943471;28;20044;-50
2023/07/04 12:30:22;;;;;;;11.90;2.30;;;19.40;99.90;;;;;;4943581;28;20332;-50
2023/07/04 12:32:51;;;;;;;9.38;2.00;;;19.40;99.90;;;;;;4943701;28;20109;-50
2023/07/04 12:35:20;;;;;;;10.57;2.40;;;19.40;99.90;;;;;;4942726;28;20055;-52
2023/07/04 12:37:50;;;;;;;13.20;2.10;;;19.40;99.90;;;;;;4926038;28;20475;-51
2023/07/04 12:40:19;;;;;;;11.77;2.22;;;19.60;99.90;;;;;;4942104;28;20546;-51
2023/07/04 12:42:46;;;;;;;7.28;1.85;;;19.90;99.90;;;;;;4925512;29;20043;-51
2023/07/04 12:45:25;;;;;;;11.18;2.63;;;20.30;99.90;;;;;;4944029;28;21421;-53
2023/07/04 12:47:54;;;;;;;8.38;1.98;;;20.60;99.90;;;;;;4944433;28;20563;-48
2023/07/04 12:50:21;;;;;;;12.48;2.50;;;20.60;99.90;;;;;;4943956;28;20036;-51
2023/07/04 12:52:50;;;;;;;11.57;2.33;;;20.50;99.90;;;;;;4944139;28;20035;-50